VCP9PC EGPK-EGNX
Flight info
| Callsign | VCP9PC |
|---|---|
| Flight time | N/A |
| Altitude | 27000 |
| Route | LUCCO Z248 OSMEG T256 DCS DCT AKOMU DCT VAMEB UL612 CROFT |
| Aircraft | MD11/H-SDE1E2E3FGHIJ2J3J4J5M1RWXY/LB1D1 |
Departure
| Time | 2026-05-01 11:07 |
|---|---|
| Airport | Glasgow Prestwick Airport (EGPK) |
Arrival
| Time | N/A |
|---|---|
| Airport | East Midlands Airport (EGNX) |
| Time | Latitude | Longitude | Altitude | Speed | Heading |
|---|---|---|---|---|---|
| 2026-05-01 10:44 | 55.51041 | -4.61053 | 45 ft | 0 kts | 121° |
| 2026-05-01 10:56 | 55.51044 | -4.61061 | 45 ft | 2 kts | 121° |
| 2026-05-01 10:57 | 55.51051 | -4.61080 | 45 ft | 0 kts | 121° |
| 2026-05-01 10:57 | 55.51057 | -4.61100 | 45 ft | 2 kts | 110° |
| 2026-05-01 10:57 | 55.51061 | -4.61126 | 45 ft | 2 kts | 94° |
| 2026-05-01 10:57 | 55.51060 | -4.61152 | 45 ft | 2 kts | 81° |
| 2026-05-01 10:58 | 55.51057 | -4.61177 | 45 ft | 2 kts | 66° |
| 2026-05-01 10:58 | 55.51049 | -4.61200 | 45 ft | 2 kts | 51° |
| 2026-05-01 10:58 | 55.51039 | -4.61219 | 45 ft | 2 kts | 37° |
| 2026-05-01 10:58 | 55.51032 | -4.61227 | 45 ft | 1 kts | 29° |
| 2026-05-01 10:59 | 55.51030 | -4.61230 | 45 ft | 0 kts | 29° |
| 2026-05-01 11:00 | 55.51030 | -4.61229 | 45 ft | 0 kts | 29° |
| 2026-05-01 11:01 | 55.51047 | -4.61212 | 45 ft | 5 kts | 31° |
| 2026-05-01 11:01 | 55.51098 | -4.61142 | 45 ft | 12 kts | 44° |
| 2026-05-01 11:01 | 55.51159 | -4.61010 | 45 ft | 13 kts | 53° |
| 2026-05-01 11:01 | 55.51202 | -4.60849 | 46 ft | 16 kts | 93° |
| 2026-05-01 11:02 | 55.51148 | -4.60646 | 46 ft | 20 kts | 120° |
| 2026-05-01 11:02 | 55.51070 | -4.60418 | 46 ft | 23 kts | 121° |
| 2026-05-01 11:02 | 55.50979 | -4.60159 | 46 ft | 26 kts | 121° |
| 2026-05-01 11:02 | 55.50879 | -4.59869 | 46 ft | 29 kts | 121° |
| 2026-05-01 11:03 | 55.50769 | -4.59551 | 47 ft | 31 kts | 121° |
| 2026-05-01 11:03 | 55.50656 | -4.59225 | 50 ft | 28 kts | 121° |
| 2026-05-01 11:03 | 55.50567 | -4.58956 | 53 ft | 24 kts | 115° |
| 2026-05-01 11:03 | 55.50491 | -4.58678 | 56 ft | 26 kts | 119° |
| 2026-05-01 11:04 | 55.50393 | -4.58395 | 59 ft | 27 kts | 121° |
| 2026-05-01 11:04 | 55.50293 | -4.58108 | 62 ft | 19 kts | 120° |
| 2026-05-01 11:04 | 55.50269 | -4.58016 | 62 ft | 2 kts | 71° |
| 2026-05-01 11:04 | 55.50272 | -4.58011 | 62 ft | 0 kts | 26° |
| 2026-05-01 11:05 | 55.50288 | -4.57983 | 63 ft | 5 kts | 47° |
| 2026-05-01 11:05 | 55.50325 | -4.57934 | 64 ft | 7 kts | 30° |
| 2026-05-01 11:05 | 55.50377 | -4.57894 | 64 ft | 8 kts | 352° |
| 2026-05-01 11:05 | 55.50436 | -4.58004 | 63 ft | 20 kts | 301° |
| 2026-05-01 11:06 | 55.50599 | -4.58472 | 59 ft | 78 kts | 301° |
| 2026-05-01 11:06 | 55.51016 | -4.59674 | 48 ft | 149 kts | 301° |
| 2026-05-01 11:06 | 55.51641 | -4.61488 | 210 ft | 187 kts | 302° |
| 2026-05-01 11:07 | 55.53043 | -4.65434 | 1485 ft | 198 kts | 298° |
| 2026-05-01 11:07 | 55.53434 | -4.67762 | 1996 ft | 213 kts | 266° |
| 2026-05-01 11:07 | 55.53001 | -4.70275 | 2519 ft | 221 kts | 231° |
| 2026-05-01 11:07 | 55.51824 | -4.71982 | 3200 ft | 224 kts | 200° |
| 2026-05-01 11:08 | 55.50359 | -4.72856 | 4019 ft | 227 kts | 198° |
| 2026-05-01 11:08 | 55.48915 | -4.73948 | 4895 ft | 232 kts | 206° |
| 2026-05-01 11:08 | 55.45844 | -4.75095 | 6115 ft | 237 kts | 182° |
| 2026-05-01 11:09 | 55.44155 | -4.75025 | 6792 ft | 251 kts | 171° |
| 2026-05-01 11:09 | 55.42504 | -4.74055 | 7537 ft | 263 kts | 151° |
| 2026-05-01 11:09 | 55.41114 | -4.71921 | 8387 ft | 274 kts | 131° |
| 2026-05-01 11:10 | 55.38928 | -4.66368 | 10202 ft | 283 kts | 129° |
| 2026-05-01 11:10 | 55.37794 | -4.63566 | 11107 ft | 286 kts | 130° |
| 2026-05-01 11:10 | 55.36624 | -4.60755 | 11984 ft | 288 kts | 130° |
| 2026-05-01 11:10 | 55.35428 | -4.57920 | 12863 ft | 291 kts | 130° |
| 2026-05-01 11:11 | 55.34226 | -4.55103 | 13607 ft | 297 kts | 131° |
| 2026-05-01 11:11 | 55.32894 | -4.52143 | 13811 ft | 323 kts | 132° |
| 2026-05-01 11:11 | 55.31379 | -4.49021 | 13927 ft | 349 kts | 134° |
| 2026-05-01 11:11 | 55.29702 | -4.45713 | 14078 ft | 372 kts | 134° |
| 2026-05-01 11:12 | 55.27978 | -4.42280 | 14575 ft | 384 kts | 134° |
| 2026-05-01 11:12 | 55.26220 | -4.38741 | 15181 ft | 393 kts | 133° |
| 2026-05-01 11:12 | 55.24425 | -4.35117 | 15909 ft | 397 kts | 133° |
| 2026-05-01 11:12 | 55.22604 | -4.31437 | 16610 ft | 402 kts | 134° |
| 2026-05-01 11:13 | 55.20788 | -4.27763 | 17306 ft | 406 kts | 134° |
| 2026-05-01 11:13 | 55.18939 | -4.24017 | 17972 ft | 410 kts | 134° |
| 2026-05-01 11:13 | 55.17069 | -4.20230 | 18639 ft | 413 kts | 134° |
| 2026-05-01 11:13 | 55.15214 | -4.16470 | 19284 ft | 417 kts | 134° |
| 2026-05-01 11:14 | 55.13315 | -4.12618 | 19913 ft | 420 kts | 134° |
| 2026-05-01 11:14 | 55.11397 | -4.08722 | 20534 ft | 423 kts | 134° |
| 2026-05-01 11:14 | 55.09487 | -4.04844 | 21122 ft | 427 kts | 134° |
| 2026-05-01 11:14 | 55.07541 | -4.00889 | 21716 ft | 430 kts | 134° |
| 2026-05-01 11:15 | 55.05617 | -3.96980 | 22272 ft | 434 kts | 134° |
| 2026-05-01 11:15 | 55.03633 | -3.92945 | 22849 ft | 437 kts | 134° |
| 2026-05-01 11:15 | 55.01669 | -3.88946 | 23387 ft | 440 kts | 134° |
| 2026-05-01 11:15 | 54.99681 | -3.84898 | 23929 ft | 443 kts | 134° |
| 2026-05-01 11:16 | 54.97667 | -3.80797 | 24418 ft | 447 kts | 133° |
| 2026-05-01 11:16 | 54.95661 | -3.76706 | 24894 ft | 450 kts | 133° |
| 2026-05-01 11:16 | 54.93613 | -3.72607 | 25368 ft | 453 kts | 134° |
| 2026-05-01 11:16 | 54.91430 | -3.68586 | 25825 ft | 456 kts | 137° |
| 2026-05-01 11:17 | 54.89204 | -3.64673 | 26434 ft | 455 kts | 137° |
| 2026-05-01 11:17 | 54.86969 | -3.60743 | 27029 ft | 454 kts | 137° |
| 2026-05-01 11:17 | 54.84766 | -3.56850 | 27095 ft | 452 kts | 137° |
| 2026-05-01 11:17 | 54.82576 | -3.52963 | 27121 ft | 450 kts | 136° |
| 2026-05-01 11:18 | 54.80430 | -3.49144 | 27126 ft | 450 kts | 136° |
| 2026-05-01 11:18 | 54.78233 | -3.45225 | 27124 ft | 451 kts | 136° |
| 2026-05-01 11:18 | 54.76074 | -3.41375 | 27126 ft | 451 kts | 136° |
| 2026-05-01 11:18 | 54.73852 | -3.37575 | 27118 ft | 450 kts | 140° |
| 2026-05-01 11:19 | 54.71408 | -3.34181 | 27125 ft | 449 kts | 147° |
| 2026-05-01 11:19 | 54.68755 | -3.31410 | 27114 ft | 447 kts | 155° |
| 2026-05-01 11:19 | 54.65957 | -3.29251 | 27141 ft | 446 kts | 159° |
| 2026-05-01 11:19 | 54.63106 | -3.27195 | 27127 ft | 445 kts | 159° |
| 2026-05-01 11:20 | 54.60243 | -3.25117 | 27123 ft | 445 kts | 159° |
| 2026-05-01 11:20 | 54.57407 | -3.23041 | 27121 ft | 445 kts | 158° |
| 2026-05-01 11:20 | 54.54565 | -3.20946 | 27123 ft | 445 kts | 158° |
| 2026-05-01 11:20 | 54.53697 | -3.20304 | 27122 ft | 445 kts | 158° |
| 2026-05-01 11:21 | 54.50870 | -3.18211 | 27123 ft | 445 kts | 158° |
| 2026-05-01 11:21 | 54.48034 | -3.16105 | 27126 ft | 445 kts | 158° |
| 2026-05-01 11:21 | 54.45179 | -3.13985 | 27126 ft | 445 kts | 158° |
| 2026-05-01 11:21 | 54.42370 | -3.11899 | 27122 ft | 445 kts | 158° |
| 2026-05-01 11:22 | 54.39523 | -3.09786 | 27123 ft | 445 kts | 158° |
| 2026-05-01 11:22 | 54.36681 | -3.07677 | 27122 ft | 444 kts | 158° |
| 2026-05-01 11:22 | 54.33857 | -3.05581 | 27123 ft | 444 kts | 158° |
| 2026-05-01 11:22 | 54.31045 | -3.03494 | 27122 ft | 444 kts | 158° |
| 2026-05-01 11:23 | 54.28221 | -3.01397 | 27123 ft | 444 kts | 158° |
| 2026-05-01 11:23 | 54.25382 | -2.99289 | 27124 ft | 444 kts | 158° |
| 2026-05-01 11:23 | 54.22548 | -2.97186 | 27126 ft | 444 kts | 158° |
| 2026-05-01 11:23 | 54.19702 | -2.95071 | 27124 ft | 443 kts | 158° |
| 2026-05-01 11:24 | 54.16871 | -2.92969 | 27126 ft | 443 kts | 158° |
| 2026-05-01 11:24 | 54.14034 | -2.90891 | 27128 ft | 443 kts | 158° |
| 2026-05-01 11:24 | 54.08389 | -2.86802 | 27128 ft | 443 kts | 158° |
| 2026-05-01 11:25 | 54.05571 | -2.84754 | 27094 ft | 443 kts | 158° |
| 2026-05-01 11:25 | 53.99955 | -2.80660 | 26758 ft | 437 kts | 158° |
| 2026-05-01 11:25 | 53.97176 | -2.78642 | 26557 ft | 437 kts | 158° |
| 2026-05-01 11:26 | 53.94367 | -2.76609 | 26355 ft | 438 kts | 158° |
| 2026-05-01 11:26 | 53.88744 | -2.72545 | 25945 ft | 441 kts | 158° |
| 2026-05-01 11:26 | 53.85928 | -2.70523 | 25680 ft | 440 kts | 158° |
| 2026-05-01 11:27 | 53.83114 | -2.68501 | 25321 ft | 437 kts | 158° |
| 2026-05-01 11:27 | 53.80344 | -2.66508 | 24971 ft | 434 kts | 158° |
| 2026-05-01 11:27 | 53.77552 | -2.64499 | 24610 ft | 431 kts | 158° |
| 2026-05-01 11:27 | 53.74794 | -2.62524 | 24256 ft | 428 kts | 158° |
| 2026-05-01 11:28 | 53.72026 | -2.60553 | 23902 ft | 426 kts | 158° |
| 2026-05-01 11:28 | 53.69313 | -2.58621 | 23484 ft | 424 kts | 158° |
| 2026-05-01 11:28 | 53.66640 | -2.56709 | 23070 ft | 420 kts | 157° |
| 2026-05-01 11:29 | 53.61420 | -2.52517 | 22242 ft | 415 kts | 152° |
| 2026-05-01 11:29 | 53.58917 | -2.50059 | 21843 ft | 414 kts | 150° |
| 2026-05-01 11:29 | 53.54059 | -2.45052 | 21241 ft | 411 kts | 149° |
| 2026-05-01 11:30 | 53.51624 | -2.42547 | 20894 ft | 409 kts | 149° |
| 2026-05-01 11:30 | 53.49208 | -2.40067 | 20556 ft | 406 kts | 149° |
| 2026-05-01 11:30 | 53.46773 | -2.37572 | 20236 ft | 403 kts | 149° |
| 2026-05-01 11:30 | 53.44410 | -2.35151 | 20120 ft | 402 kts | 149° |
| 2026-05-01 11:31 | 53.42005 | -2.32692 | 20142 ft | 402 kts | 150° |
| 2026-05-01 11:31 | 53.39615 | -2.30243 | 20135 ft | 403 kts | 150° |
| 2026-05-01 11:31 | 53.37205 | -2.27774 | 20136 ft | 403 kts | 150° |
| 2026-05-01 11:31 | 53.34789 | -2.25310 | 20052 ft | 403 kts | 151° |
| 2026-05-01 11:32 | 53.32350 | -2.23037 | 19416 ft | 402 kts | 153° |
| 2026-05-01 11:32 | 53.29903 | -2.20839 | 18774 ft | 397 kts | 153° |
| 2026-05-01 11:32 | 53.27491 | -2.18657 | 18112 ft | 391 kts | 153° |
| 2026-05-01 11:32 | 53.25138 | -2.16516 | 17458 ft | 386 kts | 153° |
| 2026-05-01 11:33 | 53.22819 | -2.14394 | 16821 ft | 381 kts | 153° |
| 2026-05-01 11:33 | 53.20481 | -2.12246 | 16168 ft | 378 kts | 152° |
| 2026-05-01 11:33 | 53.18184 | -2.10134 | 15487 ft | 375 kts | 153° |
| 2026-05-01 11:33 | 53.15886 | -2.08137 | 14811 ft | 371 kts | 155° |
| 2026-05-01 11:34 | 53.13570 | -2.06234 | 14267 ft | 365 kts | 155° |
| 2026-05-01 11:34 | 53.11387 | -2.04452 | 14059 ft | 345 kts | 155° |
| 2026-05-01 11:34 | 53.09270 | -2.02721 | 14115 ft | 332 kts | 155° |
| 2026-05-01 11:34 | 53.07267 | -2.01081 | 14023 ft | 314 kts | 155° |
| 2026-05-01 11:35 | 53.05342 | -1.99508 | 13924 ft | 302 kts | 155° |
| 2026-05-01 11:35 | 53.03500 | -1.98004 | 13519 ft | 291 kts | 155° |
| 2026-05-01 11:35 | 53.01710 | -1.96544 | 13391 ft | 280 kts | 155° |
| 2026-05-01 11:35 | 52.99956 | -1.95118 | 13088 ft | 283 kts | 155° |
| 2026-05-01 11:36 | 52.98193 | -1.93691 | 12535 ft | 285 kts | 155° |
| 2026-05-01 11:36 | 52.96410 | -1.92204 | 11900 ft | 287 kts | 148° |
| 2026-05-01 11:36 | 52.94970 | -1.89907 | 11246 ft | 286 kts | 123° |
| 2026-05-01 11:36 | 52.94309 | -1.86858 | 10661 ft | 287 kts | 98° |
| 2026-05-01 11:37 | 52.94340 | -1.83535 | 10045 ft | 287 kts | 88° |
| 2026-05-01 11:37 | 52.94615 | -1.80283 | 9410 ft | 288 kts | 77° |
| 2026-05-01 11:37 | 52.95517 | -1.77302 | 8772 ft | 292 kts | 50° |
| 2026-05-01 11:37 | 52.97117 | -1.75250 | 8255 ft | 288 kts | 26° |
| 2026-05-01 11:38 | 52.98873 | -1.73926 | 8146 ft | 269 kts | 27° |
| 2026-05-01 11:38 | 53.00474 | -1.72530 | 8130 ft | 258 kts | 33° |
| 2026-05-01 11:38 | 53.02013 | -1.70939 | 8148 ft | 260 kts | 36° |
| 2026-05-01 11:38 | 53.03492 | -1.69252 | 8139 ft | 260 kts | 37° |
| 2026-05-01 11:39 | 53.04866 | -1.67314 | 8134 ft | 255 kts | 57° |
| 2026-05-01 11:39 | 53.05621 | -1.64720 | 8141 ft | 246 kts | 86° |
| 2026-05-01 11:39 | 53.05515 | -1.62000 | 8152 ft | 236 kts | 117° |
| 2026-05-01 11:39 | 53.04796 | -1.59668 | 8707 ft | 226 kts | 118° |
| 2026-05-01 11:40 | 53.04147 | -1.57189 | 8483 ft | 242 kts | 115° |
| 2026-05-01 11:40 | 53.03537 | -1.54554 | 8147 ft | 238 kts | 114° |
| 2026-05-01 11:40 | 53.02764 | -1.52180 | 8145 ft | 231 kts | 139° |
| 2026-05-01 11:40 | 53.01420 | -1.50789 | 8117 ft | 228 kts | 168° |
| 2026-05-01 11:41 | 52.99870 | -1.50747 | 7799 ft | 228 kts | 198° |
| 2026-05-01 11:41 | 52.98455 | -1.51865 | 7479 ft | 225 kts | 202° |
| 2026-05-01 11:41 | 52.96981 | -1.52769 | 7137 ft | 224 kts | 193° |
| 2026-05-01 11:41 | 52.95477 | -1.53350 | 6812 ft | 222 kts | 190° |
| 2026-05-01 11:42 | 52.93964 | -1.53796 | 6466 ft | 223 kts | 189° |
| 2026-05-01 11:42 | 52.92445 | -1.54200 | 6128 ft | 217 kts | 187° |
| 2026-05-01 11:42 | 52.90970 | -1.54567 | 5747 ft | 212 kts | 186° |
| 2026-05-01 11:42 | 52.89533 | -1.54860 | 5441 ft | 204 kts | 186° |
| 2026-05-01 11:43 | 52.88162 | -1.55218 | 5263 ft | 195 kts | 188° |
| 2026-05-01 11:43 | 52.86832 | -1.55576 | 5170 ft | 195 kts | 188° |
| 2026-05-01 11:43 | 52.85472 | -1.55915 | 4908 ft | 198 kts | 187° |
| 2026-05-01 11:44 | 52.83025 | -1.54766 | 4424 ft | 196 kts | 125° |
| 2026-05-01 11:44 | 52.82639 | -1.52574 | 4005 ft | 204 kts | 93° |
| 2026-05-01 11:44 | 52.82709 | -1.50232 | 3645 ft | 201 kts | 89° |
| 2026-05-01 11:44 | 52.82805 | -1.48025 | 3358 ft | 191 kts | 90° |
| 2026-05-01 11:45 | 52.82868 | -1.45873 | 3115 ft | 181 kts | 89° |
| 2026-05-01 11:45 | 52.83271 | -1.43942 | 2899 ft | 182 kts | 51° |
| 2026-05-01 11:45 | 52.84317 | -1.42875 | 2750 ft | 180 kts | 8° |
| 2026-05-01 11:45 | 52.85546 | -1.43089 | 2672 ft | 180 kts | 341° |
| 2026-05-01 11:46 | 52.86718 | -1.43815 | 2325 ft | 182 kts | 337° |
| 2026-05-01 11:46 | 52.87866 | -1.44632 | 2090 ft | 178 kts | 336° |
| 2026-05-01 11:46 | 52.88863 | -1.45825 | 2153 ft | 178 kts | 302° |
| 2026-05-01 11:46 | 52.89429 | -1.47620 | 2150 ft | 178 kts | 289° |
| 2026-05-01 11:47 | 52.89865 | -1.49529 | 2133 ft | 176 kts | 287° |